Time,TemperatureF,DewpointF,PressureIn,WindDirection,WindDirectionDegrees,WindSpeedMPH,WindSpeedGustMPH,Humidity,HourlyPrecipIn,Conditions,Clouds,dailyrainin,SoftwareType,DateUTC
2013-05-28 00:01:00,52.1,50.1,30.17,WNW,292,0.0,0.0,93,0.00,,,0.00,Wunderground v.1.15,2013-05-28 04:01:00,
2013-05-28 00:02:00,52.1,50.1,30.17,WNW,292,0.0,0.0,93,0.00,,,0.00,Wunderground v.1.15,2013-05-28 04:02:00,
2013-05-28 00:06:00,51.9,49.9,30.17,WNW,292,0.0,0.0,93,0.00,,,0.00,Wunderground v.1.15,2013-05-28 04:06:00,
2013-05-28 00:08:00,51.8,49.8,30.17,WNW,292,0.0,0.0,93,0.00,,,0.00,Wunderground v.1.15,2013-05-28 04:08:00,
2013-05-28 00:10:00,51.7,49.7,30.17,WNW,292,0.0,0.0,93,0.00,,,0.00,Wunderground v.1.15,2013-05-28 04:10:00,
2013-05-28 00:16:00,51.6,49.6,30.17,WNW,292,0.0,0.0,93,0.00,,,0.00,Wunderground v.1.15,2013-05-28 04:16:00,
2013-05-28 00:21:00,51.6,49.9,30.17,WNW,292,0.0,0.0,94,0.00,,,0.00,Wunderground v.1.15,2013-05-28 04:21:00,
2013-05-28 00:26:00,51.7,50.0,30.17,WNW,292,0.0,0.0,94,0.00,,,0.00,Wunderground v.1.15,2013-05-28 04:26:00,
2013-05-28 00:32:00,51.9,50.2,30.17,WNW,292,0.0,0.0,94,0.00,,,0.00,Wunderground v.1.15,2013-05-28 04:32:00,
2013-05-28 00:37:00,51.9,50.2,30.17,WNW,292,0.0,0.0,94,0.00,,,0.00,Wunderground v.1.15,2013-05-28 04:37:00,
2013-05-28 00:42:00,52.0,50.3,30.17,WNW,292,0.0,0.0,94,0.00,,,0.00,Wunderground v.1.15,2013-05-28 04:42:00,
2013-05-28 00:49:00,51.9,50.2,30.17,WNW,292,0.0,0.0,94,0.00,,,0.00,Wunderground v.1.15,2013-05-28 04:49:00,
2013-05-28 00:54:00,51.9,50.2,30.17,WNW,292,0.0,0.0,94,0.00,,,0.00,Wunderground v.1.15,2013-05-28 04:54:00,
2013-05-28 00:59:00,51.9,50.2,30.16,WNW,292,0.0,0.0,94,0.00,,,0.00,Wunderground v.1.15,2013-05-28 04:59:00,
2013-05-28 01:04:00,51.9,50.2,30.16,WNW,292,0.0,0.0,94,0.00,,,0.00,Wunderground v.1.15,2013-05-28 05:04:00,
2013-05-28 01:10:00,52.2,50.5,30.16,WNW,292,0.0,0.0,94,0.00,,,0.00,Wunderground v.1.15,2013-05-28 05:10:00,
2013-05-28 01:15:00,52.3,50.6,30.16,WNW,292,0.0,0.0,94,0.00,,,0.00,Wunderground v.1.15,2013-05-28 05:15:00,
2013-05-28 01:21:00,52.4,50.7,30.16,WNW,292,0.0,0.0,94,0.00,,,0.00,Wunderground v.1.15,2013-05-28 05:21:00,
2013-05-28 01:26:00,52.3,50.6,30.16,WNW,292,0.0,0.0,94,0.00,,,0.00,Wunderground v.1.15,2013-05-28 05:26:00,
2013-05-28 01:32:00,52.0,50.3,30.16,WNW,292,0.0,0.0,94,0.00,,,0.00,Wunderground v.1.15,2013-05-28 05:32:00,
2013-05-28 01:37:00,52.0,50.3,30.15,WNW,292,0.0,0.0,94,0.00,,,0.00,Wunderground v.1.15,2013-05-28 05:37:00,
2013-05-28 01:42:00,51.9,50.2,30.15,WNW,292,0.0,0.0,94,0.00,,,0.00,Wunderground v.1.15,2013-05-28 05:42:00,
2013-05-28 01:49:00,51.8,50.1,30.15,WNW,292,0.0,0.0,94,0.00,,,0.00,Wunderground v.1.15,2013-05-28 05:49:00,
2013-05-28 01:55:00,51.6,49.9,30.15,WNW,292,0.0,0.0,94,0.00,,,0.00,Wunderground v.1.15,2013-05-28 05:55:00,
2013-05-28 02:01:00,51.5,49.8,30.15,WNW,292,0.0,0.0,94,0.00,,,0.00,Wunderground v.1.15,2013-05-28 06:01:00,
2013-05-28 02:06:00,51.5,49.8,30.15,WNW,292,0.0,0.0,94,0.00,,,0.00,Wunderground v.1.15,2013-05-28 06:06:00,
2013-05-28 02:11:00,51.5,49.8,30.15,WNW,292,0.0,0.0,94,0.00,,,0.00,Wunderground v.1.15,2013-05-28 06:11:00,
2013-05-28 02:16:00,51.4,49.7,30.15,WNW,292,0.0,0.0,94,0.00,,,0.00,Wunderground v.1.15,2013-05-28 06:16:00,
2013-05-28 02:21:00,51.4,49.7,30.15,WNW,292,0.0,0.0,94,0.00,,,0.00,Wunderground v.1.15,2013-05-28 06:21:00,
2013-05-28 02:26:00,51.3,49.6,30.15,WNW,292,0.0,0.0,94,0.00,,,0.00,Wunderground v.1.15,2013-05-28 06:26:00,
2013-05-28 02:32:00,50.7,48.7,30.14,WNW,292,0.0,0.0,93,0.00,,,0.00,Wunderground v.1.15,2013-05-28 06:32:00,
2013-05-28 02:38:00,50.7,49.0,30.14,WNW,292,0.0,0.0,94,0.00,,,0.00,Wunderground v.1.15,2013-05-28 06:38:00,
2013-05-28 02:43:00,50.8,49.1,30.14,WNW,292,0.0,0.0,94,0.00,,,0.00,Wunderground v.1.15,2013-05-28 06:43:00,
2013-05-28 02:49:00,50.8,49.1,30.14,WNW,292,0.0,0.0,94,0.00,,,0.00,Wunderground v.1.15,2013-05-28 06:49:00,
2013-05-28 02:54:00,50.8,49.1,30.13,WNW,292,0.0,0.0,94,0.00,,,0.00,Wunderground v.1.15,2013-05-28 06:54:00,
2013-05-28 02:59:00,50.9,49.5,30.13,WNW,292,0.0,0.0,95,0.00,,,0.00,Wunderground v.1.15,2013-05-28 06:59:00,
2013-05-28 03:05:00,51.3,49.9,30.13,WNW,292,0.0,0.0,95,0.00,,,0.00,Wunderground v.1.15,2013-05-28 07:05:00,
2013-05-28 03:11:00,51.7,50.3,30.13,WNW,292,0.0,0.0,95,0.00,,,0.00,Wunderground v.1.15,2013-05-28 07:11:00,
2013-05-28 03:16:00,52.0,50.6,30.13,WNW,292,0.0,0.0,95,0.00,,,0.00,Wunderground v.1.15,2013-05-28 07:16:00,
2013-05-28 03:21:00,52.0,50.6,30.13,WNW,292,0.0,1.0,95,0.00,,,0.00,Wunderground v.1.15,2013-05-28 07:21:00,
2013-05-28 03:26:00,52.2,50.8,30.14,WNW,292,0.0,1.0,95,0.00,,,0.00,Wunderground v.1.15,2013-05-28 07:26:00,
2013-05-28 03:32:00,52.5,51.1,30.13,WNW,292,0.0,0.0,95,0.00,,,0.01,Wunderground v.1.15,2013-05-28 07:32:00,
2013-05-28 03:37:00,52.9,51.5,30.14,WNW,292,0.0,0.0,95,0.00,,,0.01,Wunderground v.1.15,2013-05-28 07:37:00,
2013-05-28 03:42:00,53.1,51.7,30.13,WNW,292,0.0,0.0,95,0.05,,,0.02,Wunderground v.1.15,2013-05-28 07:42:00,
2013-05-28 03:49:00,53.2,51.8,30.13,WNW,292,0.0,0.0,95,0.10,,,0.03,Wunderground v.1.15,2013-05-28 07:49:00,
2013-05-28 03:54:00,53.3,51.9,30.14,WNW,292,0.0,0.0,95,0.07,,,0.03,Wunderground v.1.15,2013-05-28 07:54:00,
2013-05-28 03:59:00,53.4,52.0,30.13,WNW,292,0.0,0.0,95,0.04,,,0.03,Wunderground v.1.15,2013-05-28 07:59:00,
2013-05-28 04:04:00,53.4,52.0,30.13,WNW,292,0.0,0.0,95,0.00,,,0.03,Wunderground v.1.15,2013-05-28 08:04:00,
2013-05-28 04:10:00,53.6,52.2,30.13,WNW,292,0.0,0.0,95,0.00,,,0.04,Wunderground v.1.15,2013-05-28 08:10:00,
2013-05-28 04:16:00,53.7,52.3,30.13,WNW,292,0.0,0.0,95,0.00,,,0.04,Wunderground v.1.15,2013-05-28 08:16:00,
2013-05-28 04:22:00,53.5,51.8,30.13,WNW,292,0.0,0.0,94,0.09,,,0.05,Wunderground v.1.15,2013-05-28 08:22:00,
2013-05-28 04:29:00,53.4,51.7,30.12,WNW,292,0.0,0.0,94,0.05,,,0.05,Wunderground v.1.15,2013-05-28 08:29:00,
2013-05-28 04:34:00,53.2,51.8,30.12,WNW,292,0.0,0.0,95,0.00,,,0.05,Wunderground v.1.15,2013-05-28 08:34:00,
2013-05-28 04:40:00,53.1,51.7,30.12,WNW,292,0.0,0.0,95,0.00,,,0.05,Wunderground v.1.15,2013-05-28 08:40:00,
2013-05-28 04:46:00,53.0,51.6,30.12,WNW,292,0.0,0.0,95,0.00,,,0.05,Wunderground v.1.15,2013-05-28 08:46:00,
2013-05-28 04:51:00,52.9,51.5,30.13,WNW,292,0.0,0.0,95,0.00,,,0.05,Wunderground v.1.15,2013-05-28 08:51:00,
2013-05-28 04:56:00,52.9,51.5,30.12,WNW,292,0.0,0.0,95,0.00,,,0.05,Wunderground v.1.15,2013-05-28 08:56:00,
2013-05-28 05:01:00,52.8,51.4,30.12,WNW,292,0.0,0.0,95,0.00,,,0.05,Wunderground v.1.15,2013-05-28 09:01:00,
2013-05-28 05:07:00,52.8,51.4,30.12,WNW,292,0.0,0.0,95,0.00,,,0.05,Wunderground v.1.15,2013-05-28 09:07:00,
2013-05-28 05:12:00,52.6,51.2,30.12,WNW,292,0.0,0.0,95,0.00,,,0.05,Wunderground v.1.15,2013-05-28 09:12:00,
2013-05-28 05:17:00,52.6,51.2,30.12,WNW,292,0.0,0.0,95,0.00,,,0.05,Wunderground v.1.15,2013-05-28 09:17:00,
2013-05-28 05:23:00,52.5,51.1,30.12,WNW,292,0.0,0.0,95,0.00,,,0.05,Wunderground v.1.15,2013-05-28 09:23:00,
2013-05-28 05:28:00,52.3,50.9,30.12,WNW,292,0.0,0.0,95,0.00,,,0.05,Wunderground v.1.15,2013-05-28 09:28:00,
2013-05-28 05:34:00,52.3,50.9,30.11,WNW,292,0.0,0.0,95,0.00,,,0.05,Wunderground v.1.15,2013-05-28 09:34:00,
2013-05-28 05:40:00,52.4,51.0,30.12,WNW,292,0.0,0.0,95,0.00,,,0.05,Wunderground v.1.15,2013-05-28 09:40:00,
2013-05-28 05:46:00,52.5,51.1,30.12,WNW,292,0.0,0.0,95,0.00,,,0.05,Wunderground v.1.15,2013-05-28 09:46:00,
2013-05-28 05:51:00,52.6,51.2,30.12,WNW,292,0.0,0.0,95,0.00,,,0.05,Wunderground v.1.15,2013-05-28 09:51:00,
2013-05-28 05:56:00,52.6,51.2,30.12,WNW,292,0.0,0.0,95,0.00,,,0.05,Wunderground v.1.15,2013-05-28 09:56:00,
2013-05-28 06:02:00,52.6,51.2,30.12,WNW,292,0.0,0.0,95,0.00,,,0.05,Wunderground v.1.15,2013-05-28 10:02:00,
2013-05-28 06:07:00,52.6,51.2,30.12,WNW,292,0.0,0.0,95,0.00,,,0.05,Wunderground v.1.15,2013-05-28 10:07:00,
2013-05-28 06:12:00,52.6,51.2,30.12,WNW,292,0.0,0.0,95,0.00,,,0.05,Wunderground v.1.15,2013-05-28 10:12:00,
2013-05-28 06:19:00,52.7,51.6,30.12,WNW,292,0.0,0.0,96,0.00,,,0.05,Wunderground v.1.15,2013-05-28 10:19:00,
2013-05-28 06:24:00,52.8,51.7,30.12,WNW,292,0.0,0.0,96,0.00,,,0.05,Wunderground v.1.15,2013-05-28 10:24:00,
2013-05-28 06:31:00,52.9,51.8,30.12,WNW,292,0.0,0.0,96,0.00,,,0.05,Wunderground v.1.15,2013-05-28 10:31:00,
2013-05-28 06:36:00,53.0,51.9,30.13,WNW,292,0.0,0.0,96,0.00,,,0.05,Wunderground v.1.15,2013-05-28 10:36:00,
2013-05-28 06:41:00,53.3,52.2,30.13,WNW,292,0.0,0.0,96,0.00,,,0.05,Wunderground v.1.15,2013-05-28 10:41:00,
2013-05-28 06:47:00,53.5,52.4,30.13,WNW,292,0.0,0.0,96,0.00,,,0.05,Wunderground v.1.15,2013-05-28 10:47:00,
2013-05-28 06:52:00,53.5,52.4,30.13,WNW,292,0.0,0.0,96,0.00,,,0.05,Wunderground v.1.15,2013-05-28 10:52:00,
2013-05-28 06:57:00,53.6,52.5,30.13,WNW,292,0.0,0.0,96,0.00,,,0.05,Wunderground v.1.15,2013-05-28 10:57:00,
2013-05-28 07:04:00,53.8,52.7,30.13,WNW,292,0.0,0.0,96,0.00,,,0.05,Wunderground v.1.15,2013-05-28 11:04:00,
2013-05-28 07:10:00,54.0,52.9,30.12,WNW,292,0.0,0.0,96,0.00,,,0.05,Wunderground v.1.15,2013-05-28 11:10:00,
2013-05-28 07:16:00,54.1,53.0,30.12,WNW,292,0.0,0.0,96,0.00,,,0.05,Wunderground v.1.15,2013-05-28 11:16:00,
2013-05-28 07:21:00,54.3,53.2,30.13,WNW,292,0.0,0.0,96,0.00,,,0.05,Wunderground v.1.15,2013-05-28 11:21:00,
2013-05-28 07:27:00,54.3,53.2,30.12,WNW,292,0.0,0.0,96,0.00,,,0.05,Wunderground v.1.15,2013-05-28 11:27:00,
2013-05-28 07:32:00,54.5,53.4,30.12,WNW,292,0.0,0.0,96,0.00,,,0.05,Wunderground v.1.15,2013-05-28 11:32:00,
2013-05-28 07:38:00,54.8,53.7,30.13,WNW,292,0.0,0.0,96,0.00,,,0.05,Wunderground v.1.15,2013-05-28 11:38:00,
2013-05-28 07:44:00,55.1,54.0,30.12,WNW,292,0.0,0.0,96,0.00,,,0.05,Wunderground v.1.15,2013-05-28 11:44:00,
2013-05-28 07:49:00,55.3,54.2,30.12,WNW,292,0.0,0.0,96,0.00,,,0.05,Wunderground v.1.15,2013-05-28 11:49:00,
2013-05-28 07:55:00,55.4,54.0,30.13,WNW,292,0.0,0.0,95,0.00,,,0.05,Wunderground v.1.15,2013-05-28 11:55:00,
2013-05-28 08:01:00,55.8,54.4,30.13,WNW,292,0.0,0.0,95,0.00,,,0.05,Wunderground v.1.15,2013-05-28 12:01:00,
2013-05-28 08:06:00,55.9,54.5,30.13,WNW,292,0.0,0.0,95,0.00,,,0.05,Wunderground v.1.15,2013-05-28 12:06:00,
2013-05-28 08:12:00,56.1,54.4,30.13,WNW,292,0.0,0.0,94,0.00,,,0.05,Wunderground v.1.15,2013-05-28 12:12:00,
2013-05-28 08:19:00,56.6,54.9,30.13,WNW,292,0.0,0.0,94,0.00,,,0.05,Wunderground v.1.15,2013-05-28 12:19:00,
2013-05-28 08:24:00,57.0,55.0,30.13,WNW,292,0.0,0.0,93,0.00,,,0.05,Wunderground v.1.15,2013-05-28 12:24:00,
2013-05-28 08:31:00,57.8,55.5,30.13,WNW,292,0.0,0.0,92,0.00,,,0.05,Wunderground v.1.15,2013-05-28 12:31:00,
2013-05-28 08:36:00,58.5,55.9,30.13,WNW,292,0.0,0.0,91,0.00,,,0.05,Wunderground v.1.15,2013-05-28 12:36:00,
2013-05-28 08:42:00,59.0,56.1,30.13,WNW,292,0.0,0.0,90,0.00,,,0.05,Wunderground v.1.15,2013-05-28 12:42:00,
2013-05-28 08:47:00,59.4,55.8,30.13,WNW,292,0.0,0.0,88,0.00,,,0.05,Wunderground v.1.15,2013-05-28 12:47:00,
2013-05-28 08:52:00,59.7,55.8,30.14,WNW,292,0.0,0.0,87,0.00,,,0.05,Wunderground v.1.15,2013-05-28 12:52:00,
2013-05-28 08:58:00,60.0,55.8,30.14,WNW,292,0.0,1.0,86,0.00,,,0.05,Wunderground v.1.15,2013-05-28 12:58:00,
2013-05-28 09:04:00,60.1,55.9,30.14,WNW,292,0.0,0.0,86,0.00,,,0.05,Wunderground v.1.15,2013-05-28 13:04:00,
2013-05-28 09:10:00,60.1,55.9,30.14,WNW,292,0.0,2.0,86,0.00,,,0.05,Wunderground v.1.15,2013-05-28 13:10:00,
2013-05-28 09:16:00,60.2,56.3,30.14,WNW,292,0.0,2.0,87,0.00,,,0.05,Wunderground v.1.15,2013-05-28 13:16:00,
2013-05-28 09:21:00,60.5,56.6,30.14,WNW,292,1.0,1.0,87,0.00,,,0.05,Wunderground v.1.15,2013-05-28 13:21:00,
2013-05-28 09:29:00,61.2,57.0,30.13,WNW,292,0.0,2.0,86,0.00,,,0.05,Wunderground v.1.15,2013-05-28 13:29:00,
2013-05-28 09:34:00,61.9,57.3,30.13,WNW,292,0.0,0.0,85,0.00,,,0.05,Wunderground v.1.15,2013-05-28 13:34:00,
2013-05-28 09:40:00,62.3,57.1,30.13,WNW,292,0.0,2.0,83,0.00,,,0.05,Wunderground v.1.15,2013-05-28 13:40:00,
2013-05-28 09:46:00,62.8,57.9,30.13,WNW,292,0.0,0.0,84,0.00,,,0.05,Wunderground v.1.15,2013-05-28 13:46:00,
2013-05-28 09:51:00,62.9,57.0,30.13,WNW,292,0.0,0.0,81,0.00,,,0.05,Wunderground v.1.15,2013-05-28 13:51:00,
2013-05-28 09:56:00,62.7,56.1,30.13,NE,40,0.0,2.0,79,0.00,,,0.05,Wunderground v.1.15,2013-05-28 13:56:00,
2013-05-28 10:02:00,62.5,56.9,30.12,NE,40,1.0,1.0,82,0.00,,,0.05,Wunderground v.1.15,2013-05-28 14:02:00,
2013-05-28 10:07:00,62.3,57.1,30.13,NE,40,1.0,1.0,83,0.00,,,0.05,Wunderground v.1.15,2013-05-28 14:07:00,
2013-05-28 10:13:00,62.5,57.6,30.12,NE,40,0.0,1.0,84,0.00,,,0.05,Wunderground v.1.15,2013-05-28 14:13:00,
2013-05-28 10:19:00,62.5,57.3,30.13,NE,40,0.0,2.0,83,0.00,,,0.05,Wunderground v.1.15,2013-05-28 14:19:00,
2013-05-28 10:24:00,62.7,57.8,30.13,NE,40,0.0,0.0,84,0.00,,,0.05,Wunderground v.1.15,2013-05-28 14:24:00,
2013-05-28 10:29:00,62.9,57.7,30.13,NE,40,0.0,0.0,83,0.00,,,0.05,Wunderground v.1.15,2013-05-28 14:29:00,
2013-05-28 10:34:00,63.1,57.9,30.13,NE,40,0.0,1.0,83,0.00,,,0.05,Wunderground v.1.15,2013-05-28 14:34:00,
2013-05-28 10:40:00,63.5,58.2,30.12,NE,40,0.0,0.0,83,0.00,,,0.05,Wunderground v.1.15,2013-05-28 14:40:00,
2013-05-28 10:46:00,63.7,58.1,30.12,NE,40,0.0,0.0,82,0.00,,,0.05,Wunderground v.1.15,2013-05-28 14:46:00,
2013-05-28 10:51:00,64.2,58.6,30.12,NE,40,0.0,0.0,82,0.00,,,0.05,Wunderground v.1.15,2013-05-28 14:51:00,
2013-05-28 10:57:00,64.4,58.8,30.12,NE,40,0.0,2.0,82,0.00,,,0.05,Wunderground v.1.15,2013-05-28 14:57:00,
2013-05-28 11:02:00,64.9,59.3,30.12,NE,40,0.0,0.0,82,0.00,,,0.05,Wunderground v.1.15,2013-05-28 15:02:00,
2013-05-28 11:08:00,65.9,59.9,30.11,NE,40,0.0,1.0,81,0.00,,,0.05,Wunderground v.1.15,2013-05-28 15:08:00,
2013-05-28 11:13:00,66.3,59.6,30.11,NE,40,0.0,0.0,79,0.00,,,0.05,Wunderground v.1.15,2013-05-28 15:13:00,
2013-05-28 11:19:00,66.8,60.4,30.11,NE,40,0.0,0.0,80,0.00,,,0.05,Wunderground v.1.15,2013-05-28 15:19:00,
2013-05-28 11:24:00,67.8,60.7,30.11,NE,42,0.0,2.0,78,0.00,,,0.05,Wunderground v.1.15,2013-05-28 15:24:00,
2013-05-28 11:31:00,68.7,61.6,30.10,NE,42,0.0,2.0,78,0.00,,,0.05,Wunderground v.1.15,2013-05-28 15:31:00,
2013-05-28 11:36:00,69.7,61.8,30.10,NE,40,0.0,1.0,76,0.00,,,0.05,Wunderground v.1.15,2013-05-28 15:36:00,
2013-05-28 11:41:00,69.7,61.4,30.11,NE,40,1.0,2.0,75,0.00,,,0.05,Wunderground v.1.15,2013-05-28 15:41:00,
2013-05-28 11:46:00,69.6,62.4,30.10,NE,40,1.0,2.0,78,0.00,,,0.05,Wunderground v.1.15,2013-05-28 15:46:00,
2013-05-28 11:51:00,68.8,60.9,30.10,NW,315,1.0,2.0,76,0.00,,,0.05,Wunderground v.1.15,2013-05-28 15:51:00,
2013-05-28 11:57:00,69.0,61.9,30.10,NW,313,1.0,2.0,78,0.00,,,0.05,Wunderground v.1.15,2013-05-28 15:57:00,
2013-05-28 12:02:00,68.7,61.2,30.10,NW,313,1.0,1.0,77,0.00,,,0.05,Wunderground v.1.15,2013-05-28 16:02:00,
2013-05-28 12:08:00,68.4,60.9,30.10,NW,313,1.0,2.0,77,0.00,,,0.05,Wunderground v.1.15,2013-05-28 16:08:00,
2013-05-28 12:13:00,68.0,60.9,30.10,NW,313,1.0,1.0,78,0.00,,,0.05,Wunderground v.1.15,2013-05-28 16:13:00,
2013-05-28 12:19:00,68.1,61.7,30.09,NW,313,0.0,1.0,80,0.00,,,0.05,Wunderground v.1.15,2013-05-28 16:19:00,
2013-05-28 12:24:00,68.4,61.3,30.09,NW,313,0.0,2.0,78,0.00,,,0.05,Wunderground v.1.15,2013-05-28 16:24:00,
2013-05-28 12:29:00,68.6,61.8,30.09,NW,313,0.0,2.0,79,0.00,,,0.05,Wunderground v.1.15,2013-05-28 16:29:00,
2013-05-28 12:34:00,68.8,61.7,30.09,NW,313,0.0,2.0,78,0.00,,,0.05,Wunderground v.1.15,2013-05-28 16:34:00,
2013-05-28 12:40:00,69.3,62.1,30.08,NW,313,0.0,0.0,78,0.00,,,0.05,Wunderground v.1.15,2013-05-28 16:40:00,
2013-05-28 12:46:00,69.5,62.7,30.08,NW,313,0.0,0.0,79,0.00,,,0.05,Wunderground v.1.15,2013-05-28 16:46:00,
2013-05-28 12:51:00,69.6,62.8,30.08,NW,313,0.0,0.0,79,0.00,,,0.05,Wunderground v.1.15,2013-05-28 16:51:00,
2013-05-28 12:56:00,70.0,63.2,30.08,NW,313,0.0,0.0,79,0.00,,,0.05,Wunderground v.1.15,2013-05-28 16:56:00,
2013-05-28 13:02:00,71.0,63.8,30.09,NW,313,0.0,3.0,78,0.00,,,0.05,Wunderground v.1.15,2013-05-28 17:02:00,
2013-05-28 13:08:00,71.9,64.3,30.08,NW,313,0.0,3.0,77,0.00,,,0.05,Wunderground v.1.15,2013-05-28 17:08:00,
2013-05-28 13:13:00,72.0,64.0,30.09,NW,313,0.0,2.0,76,0.00,,,0.05,Wunderground v.1.15,2013-05-28 17:13:00,
2013-05-28 13:19:00,71.7,64.1,30.09,NW,313,1.0,2.0,77,0.00,,,0.05,Wunderground v.1.15,2013-05-28 17:19:00,
2013-05-28 13:25:00,72.0,64.4,30.09,NW,313,0.0,1.0,77,0.00,,,0.05,Wunderground v.1.15,2013-05-28 17:25:00,
2013-05-28 13:31:00,72.4,64.8,30.08,NW,313,0.0,1.0,77,0.00,,,0.05,Wunderground v.1.15,2013-05-28 17:31:00,
2013-05-28 13:36:00,72.8,65.2,30.08,NW,313,0.0,1.0,77,0.00,,,0.05,Wunderground v.1.15,2013-05-28 17:36:00,
2013-05-28 13:41:00,73.1,65.8,30.08,NW,314,0.0,0.0,78,0.00,,,0.05,Wunderground v.1.15,2013-05-28 17:41:00,
2013-05-28 13:47:00,73.2,64.8,30.08,NNW,344,1.0,2.0,75,0.00,,,0.05,Wunderground v.1.15,2013-05-28 17:47:00,
2013-05-28 13:53:00,73.7,65.7,30.08,NNW,337,1.0,1.0,76,0.00,,,0.05,Wunderground v.1.15,2013-05-28 17:53:00,
2013-05-28 13:59:00,74.0,66.0,30.08,NNW,337,1.0,3.0,76,0.00,,,0.05,Wunderground v.1.15,2013-05-28 17:59:00,
2013-05-28 14:04:00,74.9,65.3,30.08,NNW,337,1.0,1.0,72,0.00,,,0.05,Wunderground v.1.15,2013-05-28 18:04:00,
2013-05-28 14:10:00,75.4,64.9,30.08,NNW,338,1.0,1.0,70,0.00,,,0.05,Wunderground v.1.15,2013-05-28 18:10:00,
2013-05-28 14:16:00,76.1,66.8,30.08,NNW,337,0.0,3.0,73,0.00,,,0.05,Wunderground v.1.15,2013-05-28 18:16:00,
2013-05-28 14:21:00,76.5,66.4,30.08,NNW,338,0.0,2.0,71,0.00,,,0.05,Wunderground v.1.15,2013-05-28 18:21:00,
2013-05-28 14:26:00,77.0,66.9,30.07,NNW,336,1.0,2.0,71,0.00,,,0.05,Wunderground v.1.15,2013-05-28 18:26:00,
2013-05-28 14:32:00,77.5,67.8,30.07,NNW,336,1.0,1.0,72,0.00,,,0.05,Wunderground v.1.15,2013-05-28 18:32:00,
2013-05-28 14:38:00,78.2,66.8,30.07,NNW,336,0.0,1.0,68,0.00,,,0.05,Wunderground v.1.15,2013-05-28 18:38:00,
2013-05-28 14:43:00,78.5,66.6,30.06,ESE,113,1.0,1.0,67,0.00,,,0.05,Wunderground v.1.15,2013-05-28 18:43:00,
2013-05-28 14:49:00,78.4,67.0,30.06,SE,126,1.0,2.0,68,0.00,,,0.05,Wunderground v.1.15,2013-05-28 18:49:00,
2013-05-28 14:54:00,78.5,67.5,30.06,ESE,118,1.0,5.0,69,0.00,,,0.05,Wunderground v.1.15,2013-05-28 18:54:00,
2013-05-28 14:59:00,78.3,67.7,30.06,East,90,1.0,5.0,70,0.00,,,0.05,Wunderground v.1.15,2013-05-28 18:59:00,
2013-05-28 15:04:00,78.5,66.6,30.05,NNW,336,1.0,1.0,67,0.00,,,0.05,Wunderground v.1.15,2013-05-28 19:04:00,
2013-05-28 15:10:00,78.8,66.9,30.06,East,88,1.0,4.0,67,0.00,,,0.05,Wunderground v.1.15,2013-05-28 19:10:00,
2013-05-28 15:16:00,79.1,67.6,30.05,East,88,1.0,3.0,68,0.00,,,0.05,Wunderground v.1.15,2013-05-28 19:16:00,
2013-05-28 15:21:00,79.7,68.6,30.05,East,97,1.0,1.0,69,0.00,,,0.05,Wunderground v.1.15,2013-05-28 19:21:00,
2013-05-28 15:26:00,79.9,68.0,30.05,NNW,344,1.0,2.0,67,0.00,,,0.05,Wunderground v.1.15,2013-05-28 19:26:00,
2013-05-28 15:31:00,80.1,67.3,30.05,NNW,340,1.0,2.0,65,0.00,,,0.05,Wunderground v.1.15,2013-05-28 19:31:00,
2013-05-28 15:37:00,79.8,65.6,30.05,SSE,163,1.0,4.0,62,0.00,,,0.05,Wunderground v.1.15,2013-05-28 19:37:00,
2013-05-28 15:42:00,79.3,66.1,30.05,SSE,150,2.0,3.0,64,0.00,,,0.05,Wunderground v.1.15,2013-05-28 19:42:00,
2013-05-28 15:47:00,79.1,66.8,30.05,SSE,150,2.0,3.0,66,0.00,,,0.05,Wunderground v.1.15,2013-05-28 19:47:00,
2013-05-28 15:53:00,79.9,68.0,30.05,SE,128,2.0,2.0,67,0.00,,,0.05,Wunderground v.1.15,2013-05-28 19:53:00,
2013-05-28 15:58:00,80.2,66.5,30.05,SE,128,2.0,3.0,63,0.00,,,0.05,Wunderground v.1.15,2013-05-28 19:58:00,
2013-05-28 16:04:00,80.6,67.7,30.05,SE,128,1.0,2.0,65,0.00,,,0.05,Wunderground v.1.15,2013-05-28 20:04:00,
2013-05-28 16:10:00,80.9,67.6,30.05,SE,128,1.0,3.0,64,0.00,,,0.05,Wunderground v.1.15,2013-05-28 20:10:00,
2013-05-28 16:16:00,81.4,68.1,30.04,SE,128,1.0,4.0,64,0.00,,,0.05,Wunderground v.1.15,2013-05-28 20:16:00,
2013-05-28 16:21:00,81.0,67.7,30.04,ESE,111,2.0,5.0,64,0.00,,,0.05,Wunderground v.1.15,2013-05-28 20:21:00,
2013-05-28 16:27:00,81.1,68.2,30.04,SE,126,3.0,5.0,65,0.00,,,0.05,Wunderground v.1.15,2013-05-28 20:27:00,
2013-05-28 16:32:00,81.1,67.3,30.04,ESE,121,3.0,5.0,63,0.00,,,0.05,Wunderground v.1.15,2013-05-28 20:32:00,
2013-05-28 16:38:00,80.1,67.3,30.04,ESE,120,3.0,7.0,65,0.00,,,0.05,Wunderground v.1.15,2013-05-28 20:38:00,
2013-05-28 16:43:00,80.1,68.2,30.04,SE,125,3.0,6.0,67,0.00,,,0.05,Wunderground v.1.15,2013-05-28 20:43:00,
2013-05-28 16:49:00,81.0,67.7,30.04,SSE,149,2.0,6.0,64,0.00,,,0.05,Wunderground v.1.15,2013-05-28 20:49:00,
2013-05-28 16:54:00,81.2,68.3,30.04,SE,146,2.0,2.0,65,0.00,,,0.05,Wunderground v.1.15,2013-05-28 20:54:00,
2013-05-28 16:59:00,81.3,68.9,30.04,SE,135,2.0,2.0,66,0.00,,,0.05,Wunderground v.1.15,2013-05-28 20:59:00,
2013-05-28 17:05:00,81.4,68.1,30.03,SE,136,2.0,4.0,64,0.00,,,0.05,Wunderground v.1.15,2013-05-28 21:05:00,
2013-05-28 17:10:00,81.7,68.8,30.03,SE,142,2.0,4.0,65,0.00,,,0.05,Wunderground v.1.15,2013-05-28 21:10:00,
2013-05-28 17:16:00,81.3,68.0,30.03,SE,134,2.0,6.0,64,0.00,,,0.05,Wunderground v.1.15,2013-05-28 21:16:00,
2013-05-28 17:21:00,81.2,69.2,30.03,SE,132,2.0,2.0,67,0.00,,,0.05,Wunderground v.1.15,2013-05-28 21:21:00,
2013-05-28 17:26:00,81.6,69.1,30.03,ESE,114,2.0,3.0,66,0.00,,,0.05,Wunderground v.1.15,2013-05-28 21:26:00,
2013-05-28 17:32:00,81.5,68.1,30.03,ESE,116,2.0,2.0,64,0.00,,,0.05,Wunderground v.1.15,2013-05-28 21:32:00,
2013-05-28 17:38:00,81.6,68.2,30.03,ESE,113,2.0,4.0,64,0.00,,,0.05,Wunderground v.1.15,2013-05-28 21:38:00,
2013-05-28 17:44:00,81.9,67.6,30.03,ESE,113,3.0,3.0,62,0.00,,,0.05,Wunderground v.1.15,2013-05-28 21:44:00,
2013-05-28 17:49:00,82.1,68.7,30.03,ESE,121,2.0,3.0,64,0.00,,,0.05,Wunderground v.1.15,2013-05-28 21:49:00,
2013-05-28 17:54:00,82.0,68.2,30.03,SSE,168,1.0,3.0,63,0.00,,,0.05,Wunderground v.1.15,2013-05-28 21:54:00,
2013-05-28 18:01:00,81.4,67.6,30.03,SSE,157,1.0,1.0,63,0.00,,,0.05,Wunderground v.1.15,2013-05-28 22:01:00,
2013-05-28 18:06:00,81.0,68.1,30.03,SSE,157,1.0,2.0,65,0.00,,,0.05,Wunderground v.1.15,2013-05-28 22:06:00,
2013-05-28 18:11:00,80.3,67.9,30.03,SSE,157,1.0,1.0,66,0.00,,,0.05,Wunderground v.1.15,2013-05-28 22:11:00,
2013-05-28 18:16:00,79.9,67.5,30.03,SSE,157,0.0,2.0,66,0.00,,,0.05,Wunderground v.1.15,2013-05-28 22:16:00,
2013-05-28 18:21:00,79.8,67.4,30.03,SSE,157,0.0,0.0,66,0.00,,,0.05,Wunderground v.1.15,2013-05-28 22:21:00,
2013-05-28 18:26:00,79.6,68.5,30.03,SSE,157,0.0,0.0,69,0.00,,,0.05,Wunderground v.1.15,2013-05-28 22:26:00,
2013-05-28 18:32:00,79.2,68.6,30.02,SSE,157,0.0,0.0,70,0.00,,,0.05,Wunderground v.1.15,2013-05-28 22:32:00,
2013-05-28 18:38:00,79.0,68.4,30.02,SSE,157,0.0,0.0,70,0.00,,,0.05,Wunderground v.1.15,2013-05-28 22:38:00,
2013-05-28 18:43:00,79.1,68.9,30.02,SSE,157,0.0,0.0,71,0.00,,,0.05,Wunderground v.1.15,2013-05-28 22:43:00,
2013-05-28 18:49:00,79.2,69.4,30.02,SSE,157,0.0,0.0,72,0.00,,,0.05,Wunderground v.1.15,2013-05-28 22:49:00,
2013-05-28 18:54:00,79.1,69.7,30.02,SSE,157,0.0,0.0,73,0.00,,,0.05,Wunderground v.1.15,2013-05-28 22:54:00,
2013-05-28 19:01:00,78.9,69.1,30.01,SSE,148,0.0,0.0,72,0.00,,,0.05,Wunderground v.1.15,2013-05-28 23:01:00,
2013-05-28 19:06:00,78.5,68.7,30.01,SSE,148,1.0,3.0,72,0.00,,,0.05,Wunderground v.1.15,2013-05-28 23:06:00,
2013-05-28 19:11:00,78.3,68.1,30.01,SSE,148,1.0,1.0,71,0.00,,,0.05,Wunderground v.1.15,2013-05-28 23:11:00,
2013-05-28 19:17:00,77.9,66.9,30.01,SSE,148,1.0,2.0,69,0.00,,,0.05,Wunderground v.1.15,2013-05-28 23:17:00,
2013-05-28 19:23:00,77.5,66.5,30.01,SSE,148,1.0,2.0,69,0.00,,,0.05,Wunderground v.1.15,2013-05-28 23:23:00,
2013-05-28 19:29:00,77.4,66.4,30.01,SSE,148,0.0,2.0,69,0.00,,,0.05,Wunderground v.1.15,2013-05-28 23:29:00,
2013-05-28 19:34:00,77.1,66.6,30.01,SSE,148,1.0,2.0,70,0.00,,,0.05,Wunderground v.1.15,2013-05-28 23:34:00,
2013-05-28 19:39:00,76.9,66.4,30.01,SSE,148,1.0,2.0,70,0.00,,,0.05,Wunderground v.1.15,2013-05-28 23:39:00,
2013-05-28 19:46:00,76.7,66.2,30.01,SSE,148,0.0,1.0,70,0.00,,,0.05,Wunderground v.1.15,2013-05-28 23:46:00,
2013-05-28 19:52:00,76.8,66.7,30.01,SSE,148,0.0,0.0,71,0.00,,,0.05,Wunderground v.1.15,2013-05-28 23:52:00,
2013-05-28 20:04:00,77.0,67.7,30.01,SSE,148,0.0,0.0,73,0.00,,,0.05,Wunderground v.1.15,2013-05-29 00:04:00,
2013-05-28 20:09:00,76.5,66.4,30.01,SSE,148,0.0,0.0,71,0.00,,,0.05,Wunderground v.1.15,2013-05-29 00:09:00,
2013-05-28 20:16:00,75.4,66.9,30.01,SSE,148,0.0,0.0,75,0.00,,,0.05,Wunderground v.1.15,2013-05-29 00:16:00,
2013-05-28 20:22:00,74.7,66.6,30.02,SSE,148,0.0,0.0,76,0.00,,,0.05,Wunderground v.1.15,2013-05-29 00:22:00,
2013-05-28 20:27:00,73.7,66.4,30.02,SSE,148,0.0,0.0,78,0.00,,,0.05,Wunderground v.1.15,2013-05-29 00:27:00,
2013-05-28 20:36:00,72.5,66.0,30.02,SSE,148,0.0,0.0,80,0.00,,,0.05,Wunderground v.1.15,2013-05-29 00:36:00,
2013-05-28 20:41:00,72.1,65.9,30.01,SSE,148,0.0,0.0,81,0.00,,,0.05,Wunderground v.1.15,2013-05-29 00:41:00,
2013-05-28 20:47:00,71.5,65.4,30.01,SSE,148,0.0,0.0,81,0.00,,,0.05,Wunderground v.1.15,2013-05-29 00:47:00,
2013-05-28 20:54:00,70.8,65.4,30.01,SSE,148,0.0,0.0,83,0.00,,,0.05,Wunderground v.1.15,2013-05-29 00:54:00,
2013-05-28 21:01:00,70.0,64.9,30.01,SSE,148,0.0,0.0,84,0.00,,,0.05,Wunderground v.1.15,2013-05-29 01:01:00,
2013-05-28 21:06:00,69.4,64.4,30.01,SSE,148,0.0,0.0,84,0.00,,,0.05,Wunderground v.1.15,2013-05-29 01:06:00,
2013-05-28 21:12:00,68.3,63.3,30.01,SSE,148,0.0,0.0,84,0.00,,,0.05,Wunderground v.1.15,2013-05-29 01:12:00,
2013-05-28 21:17:00,67.8,63.5,30.01,SSE,148,0.0,0.0,86,0.00,,,0.05,Wunderground v.1.15,2013-05-29 01:17:00,
2013-05-28 21:23:00,67.2,62.9,30.01,SSE,148,0.0,0.0,86,0.00,,,0.05,Wunderground v.1.15,2013-05-29 01:23:00,
2013-05-28 21:28:00,66.5,62.5,30.01,SSE,148,0.0,0.0,87,0.00,,,0.05,Wunderground v.1.15,2013-05-29 01:28:00,
2013-05-28 21:34:00,66.1,62.4,30.02,SSE,148,0.0,0.0,88,0.00,,,0.05,Wunderground v.1.15,2013-05-29 01:34:00,
2013-05-28 21:40:00,65.6,62.3,30.02,SSE,148,0.0,0.0,89,0.00,,,0.05,Wunderground v.1.15,2013-05-29 01:40:00,
2013-05-28 21:46:00,65.3,62.0,30.02,SSE,148,0.0,0.0,89,0.00,,,0.05,Wunderground v.1.15,2013-05-29 01:46:00,
2013-05-28 21:51:00,65.0,62.0,30.02,SSE,148,0.0,0.0,90,0.00,,,0.05,Wunderground v.1.15,2013-05-29 01:51:00,
2013-05-28 21:57:00,64.8,61.8,30.02,SSE,148,0.0,0.0,90,0.00,,,0.05,Wunderground v.1.15,2013-05-29 01:57:00,
2013-05-28 22:02:00,64.7,61.7,30.02,SSE,148,0.0,0.0,90,0.00,,,0.05,Wunderground v.1.15,2013-05-29 02:02:00,
2013-05-28 22:08:00,64.5,61.5,30.03,SSE,148,0.0,0.0,90,0.00,,,0.05,Wunderground v.1.15,2013-05-29 02:08:00,
2013-05-28 22:14:00,64.2,61.2,30.02,SSE,148,0.0,0.0,90,0.00,,,0.05,Wunderground v.1.15,2013-05-29 02:14:00,
2013-05-28 22:19:00,63.8,60.8,30.02,SSE,148,0.0,0.0,90,0.00,,,0.05,Wunderground v.1.15,2013-05-29 02:19:00,
2013-05-28 22:24:00,63.4,60.4,30.03,SSE,148,0.0,0.0,90,0.00,,,0.05,Wunderground v.1.15,2013-05-29 02:24:00,
2013-05-28 22:29:00,63.2,60.5,30.03,SSE,148,0.0,0.0,91,0.00,,,0.05,Wunderground v.1.15,2013-05-29 02:29:00,
2013-05-28 22:35:00,63.1,60.4,30.03,SSE,148,0.0,0.0,91,0.00,,,0.05,Wunderground v.1.15,2013-05-29 02:35:00,
2013-05-28 22:40:00,63.0,60.3,30.04,SSE,148,0.0,0.0,91,0.00,,,0.05,Wunderground v.1.15,2013-05-29 02:40:00,
2013-05-28 22:49:00,62.4,59.7,30.03,SSE,148,0.0,0.0,91,0.00,,,0.05,Wunderground v.1.15,2013-05-29 02:49:00,
2013-05-28 22:54:00,62.3,59.9,30.03,SSE,148,0.0,0.0,92,0.00,,,0.05,Wunderground v.1.15,2013-05-29 02:54:00,
2013-05-28 22:59:00,62.1,59.7,30.03,SSE,148,0.0,0.0,92,0.00,,,0.05,Wunderground v.1.15,2013-05-29 02:59:00,
2013-05-28 23:04:00,61.9,59.5,30.03,SSE,148,0.0,0.0,92,0.00,,,0.05,Wunderground v.1.15,2013-05-29 03:04:00,
2013-05-28 23:10:00,61.9,59.9,30.04,SSE,148,0.0,0.0,93,0.00,,,0.05,Wunderground v.1.15,2013-05-29 03:10:00,
2013-05-28 23:16:00,61.8,59.8,30.04,SSE,148,0.0,0.0,93,0.00,,,0.05,Wunderground v.1.15,2013-05-29 03:16:00,
2013-05-28 23:21:00,61.8,59.8,30.04,SSE,148,0.0,0.0,93,0.00,,,0.05,Wunderground v.1.15,2013-05-29 03:21:00,
2013-05-28 23:27:00,61.9,59.9,30.03,SSE,148,0.0,0.0,93,0.00,,,0.05,Wunderground v.1.15,2013-05-29 03:27:00,
2013-05-28 23:34:00,62.0,60.0,30.03,SSE,148,0.0,0.0,93,0.00,,,0.05,Wunderground v.1.15,2013-05-29 03:34:00,
2013-05-28 23:40:00,61.3,59.0,30.04,SSE,148,0.0,0.0,92,0.00,,,0.05,Wunderground v.1.15,2013-05-29 03:40:00,
2013-05-28 23:46:00,61.0,59.0,30.04,SSE,148,0.0,0.0,93,0.00,,,0.05,Wunderground v.1.15,2013-05-29 03:46:00,
2013-05-28 23:51:00,60.9,58.9,30.04,SSE,148,0.0,0.0,93,0.00,,,0.05,Wunderground v.1.15,2013-05-29 03:51:00,
2013-05-28 23:56:00,60.8,59.1,30.04,SSE,148,0.0,0.0,94,0.00,,,0.05,Wunderground v.1.15,2013-05-29 03:56:00,